createdAt,value
2023-01-23T00:03:02.532Z,56.03
2023-01-23T00:07:06.611Z,57.33
2023-01-23T00:11:12.798Z,59.17
2023-01-23T00:15:16.591Z,59.57
2023-01-23T00:19:23.895Z,54.63
2023-01-23T00:23:26.792Z,53.63
2023-01-23T00:27:29.608Z,55.83
2023-01-23T00:31:34.759Z,59.03
2023-01-23T00:35:44.108Z,52.50
2023-01-23T00:39:48.054Z,51.10
2023-01-23T00:43:52.237Z,48.00
2023-01-23T00:47:59.815Z,45.83
2023-01-23T00:52:06.955Z,43.67
2023-01-23T00:56:10.062Z,44.60
2023-01-23T01:00:16.780Z,39.83
2023-01-23T01:04:19.729Z,39.20
2023-01-23T01:08:23.929Z,39.50
2023-01-23T01:12:26.852Z,37.17
2023-01-23T01:16:53.911Z,37.40
2023-01-23T01:20:59.199Z,29.67
2023-01-23T01:25:08.013Z,33.33
2023-01-23T01:29:14.648Z,34.73
2023-01-23T01:33:18.819Z,35.87
2023-01-23T01:37:23.894Z,35.40
2023-01-23T01:41:29.606Z,35.33
2023-01-23T01:46:11.402Z,35.20
2023-01-23T01:50:15.869Z,30.83
2023-01-23T01:54:26.124Z,27.77
2023-01-23T01:58:38.532Z,28.73
2023-01-23T02:02:44.947Z,25.37
2023-01-23T02:06:49.605Z,31.33
2023-01-23T02:10:53.056Z,31.80
2023-01-23T02:14:57.500Z,30.63
2023-01-23T02:19:05.735Z,30.43
2023-01-23T02:23:16.617Z,31.00
2023-01-23T02:27:22.351Z,30.47
2023-01-23T02:31:32.197Z,32.33
2023-01-23T02:35:35.402Z,33.63
2023-01-23T02:39:40.617Z,34.80
2023-01-23T02:43:45.765Z,33.87
2023-01-23T02:47:48.557Z,32.13
2023-01-23T02:51:53.130Z,36.00
2023-01-23T02:56:00.876Z,43.40
2023-01-23T03:04:34.260Z,35.37
2023-01-23T03:08:48.241Z,21.10
2023-01-23T03:12:53.443Z,40.33
2023-01-23T03:16:59.398Z,37.70
2023-01-23T03:21:06.947Z,37.13
2023-01-23T03:25:10.874Z,35.30
2023-01-23T03:29:33.795Z,33.07
2023-01-23T03:33:43.419Z,30.53
2023-01-23T03:37:47.316Z,31.87
2023-01-23T03:41:49.601Z,31.53
2023-01-23T03:45:52.390Z,35.50
2023-01-23T03:49:58.103Z,30.17
2023-01-23T03:54:01.046Z,35.50
2023-01-23T03:58:03.910Z,44.43
2023-01-23T04:02:10.375Z,39.67
2023-01-23T04:06:14.797Z,36.90
2023-01-23T04:10:17.957Z,43.30
2023-01-23T04:14:26.204Z,43.50
2023-01-23T04:18:30.840Z,45.20
2023-01-23T04:22:36.032Z,42.47
2023-01-23T04:26:38.853Z,41.40
2023-01-23T04:30:42.144Z,42.67
2023-01-23T04:34:46.257Z,40.77
2023-01-23T04:38:50.661Z,45.93
2023-01-23T04:42:54.129Z,41.73
2023-01-23T04:46:57.230Z,38.33
2023-01-23T04:51:02.235Z,42.13
2023-01-23T04:55:07.523Z,43.63
2023-01-23T04:59:10.662Z,39.93
2023-01-23T05:03:13.932Z,48.90
2023-01-23T05:07:20.055Z,42.17
2023-01-23T05:11:24.274Z,43.27
2023-01-23T05:20:11.245Z,38.83
2023-01-23T05:24:14.265Z,41.67
2023-01-23T05:28:19.024Z,40.93
2023-01-23T05:32:23.773Z,38.17
2023-01-23T05:36:26.675Z,42.80
2023-01-23T05:40:29.530Z,37.00
2023-01-23T05:44:33.999Z,34.27
2023-01-23T05:48:36.859Z,37.80
2023-01-23T05:52:40.287Z,40.63
2023-01-23T05:56:43.141Z,39.67
2023-01-23T06:00:53.340Z,39.67
2023-01-23T06:05:00.322Z,43.40
2023-01-23T06:09:03.435Z,42.57
2023-01-23T06:13:09.107Z,39.97
2023-01-23T06:17:13.704Z,33.70
2023-01-23T06:21:21.790Z,37.90
2023-01-23T06:25:24.609Z,40.00
2023-01-23T06:29:27.805Z,46.23
2023-01-23T06:33:32.226Z,37.93
2023-01-23T06:37:35.034Z,37.07
2023-01-23T06:41:37.813Z,38.93
2023-01-23T06:45:40.790Z,37.67
2023-01-23T06:49:47.219Z,37.60
2023-01-23T06:53:50.040Z,32.07
2023-01-23T06:57:57.751Z,37.10
2023-01-23T07:02:06.967Z,41.47
2023-01-23T07:06:11.787Z,40.07
2023-01-23T07:10:14.902Z,41.40
2023-01-23T07:14:17.697Z,47.23
2023-01-23T07:18:20.821Z,47.80
2023-01-23T07:22:25.985Z,46.67
2023-01-23T07:26:28.923Z,44.03
2023-01-23T07:30:34.567Z,45.60
2023-01-23T07:34:37.436Z,50.53
2023-01-23T07:38:45.208Z,41.20
2023-01-23T07:42:55.318Z,44.37
2023-01-23T07:46:58.315Z,43.77
2023-01-23T07:51:04.014Z,46.53
2023-01-23T07:55:09.053Z,39.47
2023-01-23T07:59:13.079Z,35.70
2023-01-23T08:03:15.910Z,46.47
2023-01-23T08:07:18.709Z,47.37
2023-01-23T08:11:28.628Z,39.47
2023-01-23T08:15:33.642Z,40.00
2023-01-23T08:19:36.588Z,46.13
2023-01-23T08:23:41.003Z,39.73
2023-01-23T08:27:45.251Z,44.87
2023-01-23T08:31:51.822Z,39.47
2023-01-23T08:36:02.187Z,36.83
2023-01-23T08:40:08.031Z,37.63
2023-01-23T08:44:12.211Z,35.30
2023-01-23T08:48:16.453Z,37.40
2023-01-23T08:52:21.085Z,32.17
2023-01-23T08:56:32.444Z,39.47
2023-01-23T09:00:37.528Z,30.33
2023-01-23T09:04:44.012Z,36.40
2023-01-23T09:08:47.644Z,34.27
2023-01-23T09:12:51.966Z,35.50
2023-01-23T09:16:59.062Z,32.17
2023-01-23T09:21:08.569Z,37.60
2023-01-23T09:25:14.680Z,27.53
2023-01-23T09:29:17.644Z,28.27
2023-01-23T09:33:27.116Z,26.43
2023-01-23T09:38:02.139Z,24.23
2023-01-23T09:42:08.458Z,29.73
2023-01-23T09:46:19.310Z,33.27
2023-01-23T09:50:32.547Z,25.83
2023-01-23T09:54:44.566Z,29.40
2023-01-23T09:59:04.269Z,31.07
2023-01-23T10:03:14.294Z,31.10
2023-01-23T10:07:43.168Z,25.77
2023-01-23T10:11:57.143Z,28.17
2023-01-23T10:16:21.239Z,25.87
2023-01-23T10:20:58.770Z,26.77
2023-01-23T10:25:13.014Z,26.87
2023-01-23T10:29:22.636Z,27.23
2023-01-23T10:33:34.863Z,26.87
2023-01-23T10:37:46.112Z,23.53
2023-01-23T10:41:54.332Z,19.93
2023-01-23T10:46:11.570Z,23.80
2023-01-23T10:50:15.278Z,20.97
2023-01-23T10:54:31.401Z,22.27
2023-01-23T10:58:40.987Z,24.97
2023-01-23T11:02:44.185Z,19.10
2023-01-23T11:07:02.192Z,19.77
2023-01-23T11:11:23.708Z,18.60
2023-01-23T11:15:31.473Z,21.93
2023-01-23T11:19:44.360Z,21.43
2023-01-23T11:23:50.309Z,20.40
2023-01-23T11:27:58.981Z,24.00
2023-01-23T11:32:12.459Z,19.13
2023-01-23T11:36:52.150Z,21.73
2023-01-23T11:40:58.023Z,19.60
2023-01-23T11:45:04.132Z,22.53
2023-01-23T11:49:37.204Z,26.10
2023-01-23T11:53:52.076Z,19.33
2023-01-23T11:58:06.597Z,21.23
2023-01-23T12:02:50.048Z,22.37
2023-01-23T12:07:12.932Z,17.43
2023-01-23T12:11:20.598Z,18.43
2023-01-23T12:15:36.503Z,14.37
2023-01-23T12:19:52.542Z,17.63
2023-01-23T12:24:12.293Z,18.60
2023-01-23T12:28:33.906Z,16.50
2023-01-23T12:32:49.728Z,16.03
2023-01-23T12:37:29.019Z,18.57
2023-01-23T12:41:38.062Z,16.93
2023-01-23T12:45:50.631Z,19.53
2023-01-23T12:49:58.170Z,15.83
2023-01-23T12:54:13.312Z,12.97
2023-01-23T12:58:19.587Z,14.97
2023-01-23T13:02:37.061Z,14.40
2023-01-23T13:06:57.103Z,17.53
2023-01-23T13:11:29.539Z,13.43
2023-01-23T13:15:40.631Z,18.97
2023-01-23T13:20:04.280Z,19.40
2023-01-23T13:24:52.094Z,13.67
2023-01-23T13:28:56.646Z,17.57
2023-01-23T13:33:20.067Z,19.50
2023-01-23T13:37:53.476Z,18.63
2023-01-23T13:42:38.337Z,16.87
2023-01-23T14:22:23.600Z,19.03
2023-01-23T14:26:34.511Z,16.13
2023-01-23T14:30:37.587Z,10.27
2023-01-23T14:34:41.228Z,15.30
2023-01-23T14:38:46.391Z,19.60
2023-01-23T14:42:58.841Z,15.47
2023-01-23T14:47:04.191Z,20.80
2023-01-23T14:51:20.029Z,19.40
2023-01-23T14:55:29.865Z,22.20
2023-01-23T14:59:37.909Z,21.43
2023-01-23T15:03:45.930Z,21.60
2023-01-23T15:07:54.485Z,20.70
2023-01-23T15:12:09.153Z,33.13
2023-01-23T15:16:21.554Z,23.67
2023-01-23T15:20:36.538Z,26.50
2023-01-23T15:24:41.587Z,25.23
2023-01-23T15:28:51.456Z,25.07
2023-01-23T15:32:58.902Z,26.97
2023-01-23T15:37:10.622Z,21.73
2023-01-23T15:41:17.378Z,25.20
2023-01-23T15:45:24.279Z,21.43
2023-01-23T15:49:28.706Z,15.67
2023-01-23T15:53:34.080Z,18.83
2023-01-23T15:57:37.312Z,19.63
2023-01-23T16:01:44.413Z,21.60
2023-01-23T16:05:51.079Z,18.53
2023-01-23T16:09:55.248Z,23.57
2023-01-23T16:14:03.593Z,19.53
2023-01-23T16:18:09.046Z,23.27
2023-01-23T16:22:19.106Z,18.90
2023-01-23T16:26:24.632Z,19.13
2023-01-23T16:30:31.222Z,27.37
2023-01-23T16:34:37.224Z,16.53
2023-01-23T16:38:44.727Z,22.13
2023-01-23T16:42:52.788Z,21.13
2023-01-23T16:46:57.468Z,20.47
2023-01-23T16:51:04.416Z,21.53
2023-01-23T16:55:20.694Z,29.33
2023-01-23T16:59:36.816Z,25.00
2023-01-23T17:03:44.866Z,23.40
2023-01-23T17:07:50.656Z,21.97
2023-01-23T17:12:00.173Z,24.27
2023-01-23T17:16:08.797Z,25.23
2023-01-23T17:20:21.319Z,25.53
2023-01-23T17:24:25.052Z,26.63
2023-01-23T17:28:30.559Z,24.97
2023-01-23T17:32:39.299Z,28.10
2023-01-23T17:36:42.415Z,26.97
2023-01-23T17:40:48.339Z,27.43
2023-01-23T17:44:56.029Z,32.03
2023-01-23T17:49:02.571Z,23.93
2023-01-23T17:53:05.933Z,23.53
2023-01-23T17:57:08.979Z,26.23
2023-01-23T18:01:26.855Z,30.27
2023-01-23T18:05:30.050Z,28.60
2023-01-23T18:09:37.345Z,25.43
2023-01-23T18:13:52.877Z,30.13
2023-01-23T18:18:09.554Z,26.80
2023-01-23T18:22:16.051Z,26.83
2023-01-23T18:26:32.557Z,26.23
2023-01-23T18:30:46.295Z,23.10
2023-01-23T18:34:59.784Z,20.37
2023-01-23T18:39:18.285Z,29.77
2023-01-23T18:43:33.452Z,16.13
2023-01-23T18:47:41.027Z,17.00
2023-01-23T18:51:49.055Z,28.10
2023-01-23T18:56:01.419Z,24.07
2023-01-23T19:00:16.045Z,25.07
2023-01-23T19:04:21.983Z,26.77
2023-01-23T19:08:30.923Z,32.87
2023-01-23T19:12:41.265Z,17.80
2023-01-23T19:16:50.839Z,34.87
2023-01-23T19:21:01.960Z,32.00
2023-01-23T19:25:16.537Z,24.87
2023-01-23T19:29:22.858Z,14.87
2023-01-23T19:33:28.738Z,22.17
2023-01-23T19:37:34.493Z,17.50
2023-01-23T19:41:44.038Z,29.07
2023-01-23T19:45:50.583Z,15.27
2023-01-23T19:50:00.398Z,15.57
2023-01-23T19:54:07.028Z,17.03
2023-01-23T19:58:13.142Z,24.93
2023-01-23T20:02:22.027Z,18.90
2023-01-23T20:06:25.938Z,23.53
2023-01-23T20:10:38.598Z,23.20
2023-01-23T20:14:43.015Z,16.87
2023-01-23T20:18:48.232Z,18.87
2023-01-23T20:22:51.921Z,27.43
2023-01-23T20:26:55.011Z,23.27
2023-01-23T20:31:10.281Z,16.97
2023-01-23T20:35:13.787Z,23.17
2023-01-23T20:39:16.837Z,14.43
2023-01-23T20:43:21.810Z,12.87
2023-01-23T20:47:30.704Z,24.17
2023-01-23T20:51:33.782Z,19.90
2023-01-23T20:55:37.154Z,18.87
2023-01-23T20:59:40.369Z,20.97
2023-01-23T21:03:55.700Z,20.03
2023-01-23T21:07:59.196Z,19.97
2023-01-23T21:12:08.509Z,15.63
2023-01-23T21:16:15.181Z,18.17
2023-01-23T21:20:22.559Z,20.53
2023-01-23T21:24:25.871Z,20.60
2023-01-23T21:28:30.711Z,22.33
2023-01-23T21:32:37.946Z,18.77
2023-01-23T21:36:45.189Z,13.20
2023-01-23T21:40:48.248Z,19.73
2023-01-23T21:44:52.801Z,20.00
2023-01-23T21:48:57.835Z,21.43
2023-01-23T21:53:02.286Z,21.43
2023-01-23T21:57:05.399Z,18.43
2023-01-23T22:01:30.812Z,19.33
2023-01-23T22:05:39.933Z,20.10
2023-01-23T22:09:44.374Z,24.50
2023-01-23T22:13:47.547Z,21.77
2023-01-23T22:17:50.633Z,24.70
2023-01-23T22:21:54.824Z,22.27
2023-01-23T22:26:01.639Z,21.33
2023-01-23T22:30:09.794Z,20.50
2023-01-23T22:34:14.055Z,17.70
2023-01-23T22:38:17.678Z,22.83
2023-01-23T22:42:23.513Z,24.53
2023-01-23T22:46:30.584Z,22.93
2023-01-23T22:50:37.386Z,24.07
2023-01-23T22:54:40.447Z,23.97
2023-01-23T22:58:50.405Z,19.63
2023-01-23T23:02:55.226Z,20.53
2023-01-23T23:07:00.126Z,21.80
2023-01-23T23:11:05.713Z,15.23
2023-01-23T23:15:11.676Z,24.50
2023-01-23T23:19:14.878Z,22.80
2023-01-23T23:23:19.959Z,23.27
2023-01-23T23:27:24.770Z,27.57
2023-01-23T23:31:31.763Z,19.90
2023-01-23T23:35:38.027Z,25.17
2023-01-23T23:39:41.831Z,18.80
2023-01-23T23:43:46.661Z,23.50
2023-01-23T23:47:51.119Z,22.60
2023-01-23T23:51:56.580Z,23.07
2023-01-23T23:55:59.600Z,19.70
